Nearby METAR Reports

 

EGMC - Southend-On-Sea, United Kingdom
Distance from station: NE 10km
Updated: 24/06/2024 09:20
Few Clouds
Few Clouds
 Wind from SE
Wind: SE 7 mph, 11 km/h
Temperature: 22°C
Dew Point: 16°C
Humidity: 69%
Barometer: 1020 hPa
Clouds: Few Clouds
Visibility: 6 miles, 10 km
Cloud details: Few Clouds 853 m
2024/06/24 08:20 EGMC 240820Z 13006KT 080V160 9999 FEW028 22/16 Q1020
EGLC - London City Airp, United Kingdom
Distance from station: W 37km
Updated: 24/06/2024 09:20
Clear
Clear
 Wind from E
Wind: E 6 mph, 9 km/h
Temperature: 23°C
Dew Point: 15°C
Humidity: 61%
Barometer: 1020 hPa
Clouds: Clear
Visibility: 6 miles, 10 km
2024/06/24 08:20 EGLC 240820Z AUTO 09005KT 040V140 9999 NCD 23/15 Q1020
EGKB - Biggin Hill, United Kingdom
Distance from station: WSW 45km
Updated: 24/06/2024 09:20
Few Clouds
Few Clouds
 Wind from varies
Wind: varies 3 mph, 6 km/h
Temperature: 21°C
Dew Point: 16°C
Humidity: 73%
Barometer: 1021 hPa
Clouds: Few Clouds
Visibility: 6 miles, 10 km
Cloud details: Few Clouds 762 m
2024/06/24 08:20 EGKB 240820Z VRB03KT 9999 FEW025 21/16 Q1021
 
EGSS - Stansted Airport, United Kingdom
Distance from station: NNW 48km
Updated: 24/06/2024 09:20
Clear
Clear
 Wind from varies
Wind: varies 2 mph, 4 km/h
Temperature: 22°C
Dew Point: 16°C
Humidity: 69%
Barometer: 1020 hPa
Clouds: Clear
Visibility: 6 miles, 10 km
2024/06/24 08:20 EGSS 240820Z AUTO VRB02KT 9999 NCD 22/16 Q1020
EGKK - London/Gatwick A, United Kingdom
Distance from station: SW 67km
Updated: 24/06/2024 09:20
Few Clouds
Few Clouds
 Wind from varies
Wind: varies 3 mph, 6 km/h
Temperature: 21°C
Dew Point: 16°C
Humidity: 73%
Barometer: 1020 hPa
Clouds: Few Clouds
Visibility: 6 miles, 10 km
Cloud details: Few Clouds 640 m
2024/06/24 08:20 EGKK 240820Z VRB03KT 9999 FEW021 21/16 Q1020
EGMD - Lydd Airport, United Kingdom
Distance from station: SSE 67km
Updated: 24/06/2024 09:20
Clear
Clear
 Wind from SW
Wind: SW 6 mph, 9 km/h
Temperature: 19°C
Dew Point: 16°C
Humidity: 83%
Barometer: 1021 hPa
Summary: Clear
Visibility: greater than 7 miles, 10 km
2024/06/24 08:20 EGMD 240820Z 22005KT 180V270 CAVOK 19/16 Q1021
 
EGWU - Northolt Raf, United Kingdom
Distance from station: W 69km
Updated: 24/06/2024 09:20
Few Clouds
Few Clouds
 Wind from ESE
Wind: ESE 2 mph, 4 km/h
Temperature: 22°C
Dew Point: 16°C
Humidity: 69%
Barometer: 1020 hPa
Clouds: Few Clouds
Visibility: 6 miles, 10 km
Cloud details: Few Clouds 792 m
2024/06/24 08:20 EGWU 240820Z 12002KT 9999 FEW026 22/16 Q1020 NOSIG
EGLL - London/Heathrow, United Kingdom
Distance from station: W 72km
Updated: 24/06/2024 09:20
Clear
Clear
 Wind from WNW
Wind: WNW 3 mph, 6 km/h
Temperature: 22°C
Dew Point: 14°C
Humidity: 61%
Barometer: 1020 hPa
Clouds: Clear
Visibility: 6 miles, 10 km
2024/06/24 08:20 EGLL 240820Z AUTO 29003KT 250V320 9999 NCD 22/14 Q1020
EGUW - Wattisham Raf, United Kingdom
Distance from station: NNE 72km
Updated: 24/06/2024 09:20
Few Clouds
Few Clouds
 Wind from S
Wind: S 5 mph, 7 km/h
Temperature: 22°C
Dew Point: 16°C
Humidity: 69%
Barometer: 1020 hPa
Clouds: Few Clouds
Visibility: 6 miles, 10 km
Cloud details: Few Clouds 732 m
2024/06/24 08:20 EGUW 240820Z 17004KT 9999 FEW024 22/16 Q1020 NOSIG RMK BLU BLU
 
EGGW - Luton Airport, United Kingdom
Distance from station: WNW 76km
Updated: 24/06/2024 09:20
Clear
Clear
 Wind from WSW
Wind: WSW 5 mph, 7 km/h
Temperature: 23°C
Dew Point: 15°C
Humidity: 61%
Barometer: 1020 hPa
Clouds: Clear
Visibility: 6 miles, 10 km
2024/06/24 08:20 EGGW 240820Z AUTO 25004KT 190V310 9999 NCD 23/15 Q1020
EGSC - Cambridge, United Kingdom
Distance from station: NNW 81km
Updated: 24/06/2024 09:20
Few Clouds
Few Clouds
 Wind from varies
Wind: varies 2 mph, 4 km/h
Temperature: 23°C
Dew Point: 16°C
Humidity: 65%
Barometer: 1020 hPa
Clouds: Few Clouds
Visibility: 6 miles, 10 km
Cloud details: Few Clouds 762 m
2024/06/24 08:20 EGSC 240820Z VRB02KT 9999 FEW025 23/16 Q1020